Delawanna, New Jersey
Current Conditions -  °F | °C
As of 11:51 PM on Wednesday 22 Oct 2014 (Local Time) from KTEB Reporting Station
Light Rain Light Rain  
Wind Chill: 52°   Ceiling: 4800
Heat Index: 52°   Visibility: 10mi
Dew Point: 46°   Wind: 22mph
Humidity: 80%   Direction: 350°N
Pressure: 29.72"   Gusts: 31mph
Location:  40.8318°N, 74.1362°W
Report Text: KTEB 230351Z 35019G27KT 10SM -RA FEW019 SCT031 OVC048 11/08 A2972 RMK AO2 PK WND 36027/0351 SLP065 P0014 T01110078 $
Loading
Personal Weather Stations






























Interactive Weather Map
Tropical Storm Tracking
New forecast layout! Learn more

10-Day Weather Forecast

Advertisements
Track Severe Weather on mobile